createdAt,value
2017-11-26T00:00:54.817Z,0
2017-11-26T00:02:04.269Z,0
2017-11-26T00:03:14.266Z,0
2017-11-26T00:04:24.256Z,0
2017-11-26T00:05:34.229Z,0
2017-11-26T00:06:43.933Z,0
2017-11-26T00:07:53.917Z,0
2017-11-26T00:09:03.352Z,0
2017-11-26T00:10:13.324Z,0
2017-11-26T00:11:23.294Z,0
2017-11-26T00:12:33.006Z,0
2017-11-26T00:13:42.737Z,0
2017-11-26T00:14:52.715Z,0
2017-11-26T00:16:02.681Z,0
2017-11-26T00:17:12.383Z,0
2017-11-26T00:18:22.353Z,0
2017-11-26T00:19:32.346Z,0
2017-11-26T00:20:41.802Z,0
2017-11-26T00:21:51.521Z,0
2017-11-26T00:23:01.244Z,0
2017-11-26T00:24:11.211Z,0
2017-11-26T00:25:20.913Z,0
2017-11-26T00:26:30.889Z,0
2017-11-26T00:27:40.608Z,0
2017-11-26T00:28:50.307Z,0
2017-11-26T00:30:00.017Z,0
2017-11-26T00:31:09.734Z,0
2017-11-26T00:32:19.174Z,0
2017-11-26T00:33:28.876Z,0
2017-11-26T00:34:38.844Z,0
2017-11-26T00:35:48.558Z,0
2017-11-26T00:36:58.011Z,0
2017-11-26T00:38:07.794Z,0
2017-11-26T00:39:17.788Z,0
2017-11-26T00:40:27.229Z,0
2017-11-26T00:41:36.922Z,0
2017-11-26T00:42:46.905Z,0
2017-11-26T00:43:56.619Z,0
2017-11-26T00:45:06.563Z,0
2017-11-26T00:46:16.275Z,0
2017-11-26T00:47:26.245Z,0
2017-11-26T00:48:36.248Z,0
2017-11-26T00:49:46.210Z,0
2017-11-26T00:50:56.190Z,0
2017-11-26T00:52:05.888Z,0
2017-11-26T00:53:15.599Z,0
2017-11-26T00:54:25.062Z,0
2017-11-26T00:55:34.527Z,0
2017-11-26T00:56:44.221Z,0
2017-11-26T00:57:53.933Z,0
2017-11-26T00:59:03.909Z,0
2017-11-26T01:00:13.880Z,0
2017-11-26T01:01:23.851Z,0
2017-11-26T01:02:33.294Z,0
2017-11-26T01:03:43.275Z,0
2017-11-26T01:04:53.261Z,0
2017-11-26T01:06:02.985Z,0
2017-11-26T01:07:12.428Z,0
2017-11-26T01:08:22.123Z,0
2017-11-26T01:09:32.102Z,0
2017-11-26T01:10:41.578Z,0
2017-11-26T01:11:51.562Z,0
2017-11-26T01:13:01.314Z,0
2017-11-26T01:14:11.296Z,0
2017-11-26T01:15:21.255Z,0
2017-11-26T01:16:31.224Z,0
2017-11-26T01:17:40.671Z,0
2017-11-26T01:18:50.388Z,0
2017-11-26T01:19:59.556Z,0
2017-11-26T01:21:08.996Z,0
2017-11-26T01:22:18.694Z,0
2017-11-26T01:23:28.665Z,0
2017-11-26T01:24:38.365Z,0
2017-11-26T01:25:47.812Z,0
2017-11-26T01:26:57.517Z,0
2017-11-26T01:28:07.496Z,0
2017-11-26T01:29:16.949Z,0
2017-11-26T01:30:26.976Z,0
2017-11-26T01:31:36.429Z,0
2017-11-26T01:32:46.403Z,0
2017-11-26T01:33:56.165Z,0
2017-11-26T01:35:05.879Z,0
2017-11-26T01:36:15.595Z,0
2017-11-26T01:37:25.045Z,0
2017-11-26T01:38:34.488Z,0
2017-11-26T01:39:44.203Z,0
2017-11-26T01:40:53.921Z,0
2017-11-26T01:42:03.890Z,0
2017-11-26T01:43:13.071Z,0
2017-11-26T01:44:23.038Z,0
2017-11-26T01:45:32.497Z,0
2017-11-26T01:46:42.206Z,0
2017-11-26T01:47:52.176Z,0
2017-11-26T01:49:01.890Z,0
2017-11-26T01:50:11.855Z,0
2017-11-26T01:51:21.843Z,0
2017-11-26T01:52:31.031Z,0
2017-11-26T01:53:40.733Z,0
2017-11-26T01:54:50.460Z,0
2017-11-26T01:55:59.958Z,0
2017-11-26T01:57:09.670Z,0
2017-11-26T01:58:19.638Z,0
2017-11-26T01:59:29.370Z,0
2017-11-26T02:00:38.806Z,0
2017-11-26T02:01:48.521Z,0
2017-11-26T02:02:58.490Z,0
2017-11-26T02:04:08.469Z,0
2017-11-26T02:05:18.180Z,0
2017-11-26T02:06:28.139Z,0
2017-11-26T02:07:37.837Z,0
2017-11-26T02:08:47.812Z,0
2017-11-26T02:09:57.798Z,0
2017-11-26T02:11:07.765Z,0
2017-11-26T02:12:17.213Z,0
2017-11-26T02:13:26.909Z,0
2017-11-26T02:14:36.618Z,0
2017-11-26T02:15:46.059Z,0
2017-11-26T02:16:56.053Z,0
2017-11-26T02:18:06.033Z,0
2017-11-26T02:19:15.788Z,0
2017-11-26T02:20:25.492Z,0
2017-11-26T02:21:35.449Z,0
2017-11-26T02:22:45.160Z,0
2017-11-26T02:23:54.879Z,0
2017-11-26T02:25:04.447Z,0
2017-11-26T02:26:13.878Z,0
2017-11-26T02:27:23.318Z,0
2017-11-26T02:28:33.317Z,0
2017-11-26T02:29:43.293Z,0
2017-11-26T02:30:53.278Z,0
2017-11-26T02:32:02.731Z,0
2017-11-26T02:33:12.716Z,0
2017-11-26T02:34:22.193Z,0
2017-11-26T02:35:32.160Z,0
2017-11-26T02:36:41.861Z,0
2017-11-26T02:37:51.846Z,0
2017-11-26T02:39:01.594Z,0
2017-11-26T02:40:11.578Z,0
2017-11-26T02:41:21.301Z,0
2017-11-26T02:42:31.299Z,0
2017-11-26T02:43:40.756Z,0
2017-11-26T02:44:50.476Z,0
2017-11-26T02:46:00.184Z,0
2017-11-26T02:47:09.903Z,0
2017-11-26T02:48:19.907Z,0
2017-11-26T02:49:29.627Z,0
2017-11-26T02:50:39.338Z,0
2017-11-26T02:51:49.330Z,0
2017-11-26T02:52:59.327Z,0
2017-11-26T02:54:08.792Z,0
2017-11-26T02:55:18.781Z,0
2017-11-26T02:56:28.731Z,0
2017-11-26T02:57:38.426Z,0
2017-11-26T02:58:47.885Z,0
2017-11-26T02:59:57.882Z,0
2017-11-26T03:01:07.589Z,0
2017-11-26T03:02:17.018Z,0
2017-11-26T03:03:26.453Z,0
2017-11-26T03:04:36.148Z,0
2017-11-26T03:05:45.600Z,0
2017-11-26T03:06:55.558Z,0
2017-11-26T03:08:05.001Z,0
2017-11-26T03:09:14.708Z,0
2017-11-26T03:10:24.673Z,0
2017-11-26T03:11:34.664Z,0
2017-11-26T03:12:44.393Z,0
2017-11-26T03:13:53.833Z,0
2017-11-26T03:15:03.294Z,0
2017-11-26T03:16:13.001Z,0
2017-11-26T03:17:22.718Z,0
2017-11-26T03:18:32.693Z,0
2017-11-26T03:19:42.399Z,0
2017-11-26T03:20:52.098Z,0
2017-11-26T03:22:01.536Z,0
2017-11-26T03:23:11.493Z,0
2017-11-26T03:24:21.468Z,0
2017-11-26T03:25:31.434Z,0
2017-11-26T03:26:41.389Z,0
2017-11-26T03:27:51.080Z,0
2017-11-26T03:29:01.062Z,0
2017-11-26T03:30:11.057Z,0
2017-11-26T03:31:20.788Z,0
2017-11-26T03:32:30.483Z,0
2017-11-26T03:33:40.446Z,0
2017-11-26T03:34:50.431Z,0
2017-11-26T03:36:00.406Z,0
2017-11-26T03:37:10.138Z,0
2017-11-26T03:38:20.364Z,0
2017-11-26T03:39:29.819Z,0
2017-11-26T03:40:39.524Z,0
2017-11-26T03:41:48.980Z,0
2017-11-26T03:42:58.948Z,0
2017-11-26T03:44:08.659Z,0
2017-11-26T03:45:17.593Z,0
2017-11-26T03:46:27.562Z,0
2017-11-26T03:47:37.270Z,0
2017-11-26T03:48:46.962Z,0
2017-11-26T03:49:56.661Z,0
2017-11-26T03:51:06.633Z,0
2017-11-26T03:52:16.340Z,0
2017-11-26T03:53:26.084Z,0
2017-11-26T03:54:35.789Z,0
2017-11-26T03:55:45.485Z,0
2017-11-26T03:56:55.178Z,0
2017-11-26T03:58:04.885Z,0
2017-11-26T03:59:14.335Z,0
2017-11-26T04:00:24.316Z,0
2017-11-26T04:01:34.025Z,0
2017-11-26T04:02:43.475Z,0
2017-11-26T04:03:53.188Z,0
2017-11-26T04:05:02.895Z,0
2017-11-26T04:06:12.345Z,0
2017-11-26T04:07:21.784Z,0
2017-11-26T04:08:30.971Z,0
2017-11-26T04:09:40.991Z,0
2017-11-26T04:10:50.959Z,0
2017-11-26T04:12:00.170Z,0
2017-11-26T04:13:10.167Z,0
2017-11-26T04:14:19.611Z,0
2017-11-26T04:15:29.308Z,0
2017-11-26T04:16:39.108Z,0
2017-11-26T04:17:48.824Z,0
2017-11-26T04:18:58.270Z,0
2017-11-26T04:20:08.236Z,0
2017-11-26T04:21:18.224Z,0
2017-11-26T04:22:28.203Z,0
2017-11-26T04:23:37.905Z,0
2017-11-26T04:24:47.624Z,0
2017-11-26T04:25:57.319Z,0
2017-11-26T04:27:07.039Z,0
2017-11-26T04:28:16.474Z,0
2017-11-26T04:29:26.431Z,0
2017-11-26T04:30:36.145Z,0
2017-11-26T04:31:45.848Z,0
2017-11-26T04:32:55.287Z,0
2017-11-26T04:34:05.248Z,0
2017-11-26T04:35:14.946Z,0
2017-11-26T04:36:24.916Z,0
2017-11-26T04:37:34.885Z,0
2017-11-26T04:38:44.332Z,0
2017-11-26T04:39:54.055Z,0
2017-11-26T04:41:04.021Z,0
2017-11-26T04:42:13.722Z,0
2017-11-26T04:43:23.446Z,0
2017-11-26T04:44:33.402Z,0
2017-11-26T04:45:42.880Z,0
2017-11-26T04:46:52.597Z,0
2017-11-26T04:48:02.560Z,0
2017-11-26T04:49:12.260Z,0
2017-11-26T04:50:21.966Z,0
2017-11-26T04:51:31.667Z,0
2017-11-26T04:52:41.358Z,0
2017-11-26T04:53:51.329Z,0
2017-11-26T04:55:01.331Z,0
2017-11-26T04:56:11.293Z,0
2017-11-26T04:57:21.005Z,0
2017-11-26T04:58:30.447Z,0
2017-11-26T04:59:40.499Z,0
2017-11-26T05:00:50.464Z,0
2017-11-26T05:02:00.439Z,0
2017-11-26T05:03:10.401Z,0
2017-11-26T05:04:20.360Z,0
2017-11-26T05:05:30.321Z,0
2017-11-26T05:06:40.291Z,0
2017-11-26T05:07:50.273Z,0
2017-11-26T05:08:59.972Z,0
2017-11-26T05:10:09.407Z,0
2017-11-26T05:11:19.380Z,0
2017-11-26T05:12:29.083Z,0
2017-11-26T05:13:39.052Z,0
2017-11-26T05:14:49.047Z,0
2017-11-26T05:15:58.490Z,0
2017-11-26T05:17:08.221Z,0
2017-11-26T05:18:17.938Z,0
2017-11-26T05:19:27.145Z,0
2017-11-26T05:20:37.108Z,0
2017-11-26T05:21:46.554Z,0
2017-11-26T05:22:56.532Z,0
2017-11-26T05:24:05.961Z,0
2017-11-26T05:25:15.396Z,0
2017-11-26T05:26:25.371Z,0
2017-11-26T05:27:35.341Z,0
2017-11-26T05:28:45.040Z,0
2017-11-26T05:29:55.230Z,0
2017-11-26T05:31:04.688Z,0
2017-11-26T05:32:14.666Z,0
2017-11-26T05:33:24.623Z,0
2017-11-26T05:34:33.806Z,0
2017-11-26T05:35:43.534Z,0
2017-11-26T05:36:53.259Z,0
2017-11-26T05:38:03.221Z,0
2017-11-26T05:39:12.674Z,0
2017-11-26T05:40:22.673Z,0
2017-11-26T05:41:32.640Z,0
2017-11-26T05:42:42.079Z,0
2017-11-26T05:43:51.531Z,0
2017-11-26T05:45:01.498Z,0
2017-11-26T05:46:11.460Z,0
2017-11-26T05:47:20.635Z,0
2017-11-26T05:48:30.342Z,0
2017-11-26T05:49:40.360Z,0
2017-11-26T05:50:50.061Z,0
2017-11-26T05:52:00.026Z,0
2017-11-26T05:53:09.461Z,0
2017-11-26T05:54:19.431Z,0
2017-11-26T05:55:28.881Z,0
2017-11-26T05:56:38.860Z,0
2017-11-26T05:57:49.134Z,0
2017-11-26T05:58:58.588Z,0
2017-11-26T06:00:08.570Z,0
2017-11-26T06:01:18.546Z,0
2017-11-26T06:02:27.993Z,0
2017-11-26T06:03:37.707Z,0
2017-11-26T06:04:47.142Z,0
2017-11-26T06:05:57.126Z,0
2017-11-26T06:07:06.825Z,0
2017-11-26T06:08:16.522Z,0
2017-11-26T06:09:25.963Z,4
2017-11-26T06:10:35.674Z,4
2017-11-26T06:11:45.138Z,4
2017-11-26T06:12:54.844Z,4
2017-11-26T06:14:04.553Z,4
2017-11-26T06:15:14.253Z,4
2017-11-26T06:16:23.951Z,8
2017-11-26T06:17:33.653Z,12
2017-11-26T06:18:43.620Z,12
2017-11-26T06:19:53.060Z,16
2017-11-26T06:21:03.013Z,20
2017-11-26T06:22:12.719Z,24
2017-11-26T06:23:22.420Z,28
2017-11-26T06:24:31.865Z,32
2017-11-26T06:25:41.566Z,44
2017-11-26T06:26:51.278Z,48
2017-11-26T06:28:00.979Z,56
2017-11-26T06:29:10.949Z,68
2017-11-26T06:30:20.652Z,80
2017-11-26T06:31:30.389Z,92
2017-11-26T06:32:40.086Z,104
2017-11-26T06:33:50.092Z,124
2017-11-26T06:34:59.806Z,140
2017-11-26T06:36:09.768Z,156
2017-11-26T06:37:19.722Z,168
2017-11-26T06:38:29.685Z,184
2017-11-26T06:39:39.641Z,204
2017-11-26T06:40:49.085Z,224
2017-11-26T06:41:59.050Z,240
2017-11-26T06:43:09.016Z,236
2017-11-26T06:44:18.191Z,248
2017-11-26T06:45:28.178Z,268
2017-11-26T06:46:38.152Z,288
2017-11-26T06:47:47.851Z,324
2017-11-26T06:48:57.828Z,368
2017-11-26T06:50:07.527Z,416
2017-11-26T06:51:17.490Z,468
2017-11-26T06:52:27.205Z,508
2017-11-26T06:53:36.950Z,580
2017-11-26T06:54:46.613Z,616
2017-11-26T06:55:56.052Z,680
2017-11-26T06:57:05.768Z,716
2017-11-26T06:58:15.741Z,772
2017-11-26T06:59:25.454Z,740
2017-11-26T07:00:35.151Z,776
2017-11-26T07:01:44.850Z,824
2017-11-26T07:02:55.062Z,896
2017-11-26T07:04:05.037Z,960
2017-11-26T07:05:14.477Z,948
2017-11-26T07:06:24.179Z,1036
2017-11-26T07:07:33.624Z,1200
2017-11-26T07:08:43.593Z,1324
2017-11-26T07:09:53.547Z,1280
2017-11-26T07:11:03.744Z,1276
2017-11-26T07:12:13.713Z,1232
2017-11-26T07:13:23.696Z,1236
2017-11-26T07:14:33.403Z,1328
2017-11-26T07:15:42.614Z,1240
2017-11-26T07:16:52.599Z,1292
2017-11-26T07:18:02.565Z,1436
2017-11-26T07:19:12.541Z,1496
2017-11-26T07:20:22.508Z,1476
2017-11-26T07:21:32.482Z,1648
2017-11-26T07:22:41.926Z,1648
2017-11-26T07:23:51.614Z,1708
2017-11-26T07:25:01.345Z,1792
2017-11-26T07:26:11.065Z,1800
2017-11-26T07:27:21.036Z,1824
2017-11-26T07:28:30.473Z,1948
2017-11-26T07:29:40.173Z,2152
2017-11-26T07:30:49.885Z,2252
2017-11-26T07:31:59.639Z,2456
2017-11-26T07:33:09.351Z,2680
2017-11-26T07:34:19.338Z,2932
2017-11-26T07:35:29.318Z,2968
2017-11-26T07:36:39.273Z,3064
2017-11-26T07:37:48.988Z,3196
2017-11-26T07:38:58.696Z,3392
2017-11-26T07:40:08.407Z,3724
2017-11-26T07:41:18.397Z,4288
2017-11-26T07:42:28.364Z,4496
2017-11-26T07:43:38.350Z,4664
2017-11-26T07:44:48.323Z,4908
2017-11-26T07:45:58.294Z,5764
2017-11-26T07:47:08.281Z,5712
2017-11-26T07:48:18.015Z,5516
2017-11-26T07:49:27.453Z,6152
2017-11-26T07:50:36.899Z,5804
2017-11-26T07:51:46.332Z,4304
2017-11-26T07:52:56.309Z,4248
2017-11-26T07:54:06.295Z,4144
2017-11-26T07:55:15.753Z,4384
2017-11-26T07:56:25.733Z,4880
2017-11-26T07:57:35.702Z,4604
2017-11-26T07:58:45.439Z,4408
2017-11-26T07:59:55.152Z,4876
2017-11-26T08:01:04.870Z,4288
2017-11-26T08:02:14.579Z,4116
2017-11-26T08:03:24.011Z,4188
2017-11-26T08:04:33.451Z,4972
2017-11-26T08:05:43.415Z,5872
2017-11-26T08:06:53.374Z,5932
2017-11-26T08:08:02.821Z,6108
2017-11-26T08:09:12.804Z,5944
2017-11-26T08:10:22.525Z,6384
2017-11-26T08:11:32.497Z,6960
2017-11-26T08:12:42.224Z,8676
2017-11-26T08:13:51.922Z,9692
2017-11-26T08:15:01.372Z,9828
2017-11-26T08:16:11.341Z,9856
2017-11-26T08:17:21.333Z,10364
2017-11-26T08:18:31.062Z,10556
2017-11-26T08:19:40.785Z,10676
2017-11-26T08:20:50.238Z,11040
2017-11-26T08:21:59.677Z,11040
2017-11-26T08:23:09.385Z,11392
2017-11-26T08:24:19.388Z,11524
2017-11-26T08:25:28.830Z,11792
2017-11-26T08:26:38.533Z,11980
2017-11-26T08:27:48.514Z,12368
2017-11-26T08:28:58.229Z,12636
2017-11-26T08:30:08.199Z,13100
2017-11-26T08:31:17.941Z,13444
2017-11-26T08:32:27.661Z,13568
2017-11-26T08:33:37.116Z,14268
2017-11-26T08:34:47.113Z,14484
2017-11-26T08:35:56.577Z,14720
2017-11-26T08:37:06.552Z,15016
2017-11-26T08:38:16.527Z,15680
2017-11-26T08:39:26.266Z,16064
2017-11-26T08:40:36.249Z,16704
2017-11-26T08:41:46.198Z,17984
2017-11-26T08:42:55.914Z,18560
2017-11-26T08:44:05.122Z,19008
2017-11-26T08:45:15.096Z,19776
2017-11-26T08:46:25.075Z,19264
2017-11-26T08:47:34.783Z,18880
2017-11-26T08:48:44.238Z,19200
2017-11-26T08:49:54.208Z,20128
2017-11-26T08:51:03.657Z,22976
2017-11-26T08:52:13.635Z,26080
2017-11-26T08:53:23.623Z,24544
2017-11-26T08:54:33.345Z,15812
2017-11-26T08:55:43.056Z,15456
2017-11-26T08:56:53.029Z,18464
2017-11-26T08:58:03.016Z,15036
2017-11-26T08:59:12.211Z,14180
2017-11-26T09:00:22.195Z,14464
2017-11-26T09:01:31.901Z,13244
2017-11-26T09:02:41.625Z,12336
2017-11-26T09:03:51.603Z,12228
2017-11-26T09:05:01.307Z,11480
2017-11-26T09:06:11.278Z,10376
2017-11-26T09:07:20.996Z,10364
2017-11-26T09:08:30.454Z,10308
2017-11-26T09:09:40.156Z,9680
2017-11-26T09:10:49.856Z,9272
2017-11-26T09:11:59.560Z,9496
2017-11-26T09:13:09.553Z,10060
2017-11-26T09:14:19.556Z,12216
2017-11-26T09:15:29.264Z,15780
2017-11-26T09:16:39.241Z,29888
2017-11-26T09:17:48.953Z,26688
2017-11-26T09:18:58.676Z,21600
2017-11-26T09:20:08.664Z,34048
2017-11-26T09:21:18.637Z,45088
2017-11-26T09:22:28.354Z,46720
2017-11-26T09:23:37.802Z,48544
2017-11-26T09:24:47.772Z,45920
2017-11-26T09:25:57.754Z,43776
2017-11-26T09:27:07.480Z,40960
2017-11-26T09:28:17.202Z,24352
2017-11-26T09:29:27.212Z,19328
2017-11-26T09:30:36.976Z,12984
2017-11-26T09:31:46.419Z,10972
2017-11-26T09:32:56.415Z,10308
2017-11-26T09:34:06.125Z,9452
2017-11-26T09:35:16.104Z,8456
2017-11-26T09:36:25.557Z,7700
2017-11-26T09:37:35.541Z,6748
2017-11-26T09:38:45.516Z,6312
2017-11-26T09:39:55.491Z,5952
2017-11-26T09:41:05.477Z,6200
2017-11-26T09:42:15.442Z,6624
2017-11-26T09:43:25.435Z,6696
2017-11-26T09:44:35.431Z,6828
2017-11-26T09:45:45.143Z,7080
2017-11-26T09:46:54.892Z,8580
2017-11-26T09:48:04.858Z,9448
2017-11-26T09:49:14.295Z,8264
2017-11-26T09:50:24.005Z,7016
2017-11-26T09:51:33.972Z,6320
2017-11-26T09:52:43.978Z,6152
2017-11-26T09:53:53.699Z,7008
2017-11-26T09:55:03.149Z,7504
2017-11-26T09:56:13.154Z,6244
2017-11-26T09:57:22.881Z,5004
2017-11-26T09:58:32.861Z,4944
2017-11-26T09:59:42.578Z,5420
2017-11-26T10:00:52.557Z,5480
2017-11-26T10:02:02.539Z,5440
2017-11-26T10:03:12.253Z,5024
2017-11-26T10:04:21.701Z,5024
2017-11-26T10:05:31.428Z,4692
2017-11-26T10:06:41.134Z,4740
2017-11-26T10:07:50.832Z,5056
2017-11-26T10:09:00.797Z,4760
2017-11-26T10:10:10.252Z,4996
2017-11-26T10:11:19.960Z,5016
2017-11-26T10:12:29.678Z,5164
2017-11-26T10:13:39.125Z,5440
2017-11-26T10:14:48.843Z,5964
2017-11-26T10:15:58.564Z,6744
2017-11-26T10:17:08.272Z,6992
2017-11-26T10:18:17.984Z,6552
2017-11-26T10:19:27.953Z,6032
2017-11-26T10:20:37.149Z,6484
2017-11-26T10:21:46.864Z,7840
2017-11-26T10:22:56.829Z,9340
2017-11-26T10:24:06.812Z,9428
2017-11-26T10:25:16.801Z,10160
2017-11-26T10:26:26.521Z,11752
2017-11-26T10:27:36.255Z,13856
2017-11-26T10:28:45.973Z,14920
2017-11-26T10:29:55.674Z,14592
2017-11-26T10:31:05.395Z,16016
2017-11-26T10:32:15.097Z,18720
2017-11-26T10:33:25.066Z,22624
2017-11-26T10:34:34.826Z,24960
2017-11-26T10:35:44.285Z,75456
2017-11-26T10:36:54.274Z,70304
2017-11-26T10:38:04.250Z,62080
2017-11-26T10:39:14.232Z,76960
2017-11-26T10:40:23.930Z,47680
2017-11-26T10:41:33.899Z,65376
2017-11-26T10:42:43.951Z,31232
2017-11-26T10:43:53.680Z,31552
2017-11-26T10:45:03.670Z,43008
2017-11-26T10:46:12.867Z,69920
2017-11-26T10:47:22.852Z,67200
2017-11-26T10:48:32.846Z,66912
2017-11-26T10:49:42.856Z,31136
2017-11-26T10:50:52.311Z,33888
2017-11-26T10:52:02.302Z,57024
2017-11-26T10:53:12.271Z,70912
2017-11-26T10:54:21.977Z,67424
2017-11-26T10:55:31.708Z,67552
2017-11-26T10:56:41.689Z,71712
2017-11-26T10:57:51.170Z,75616
2017-11-26T10:59:01.189Z,71808
2017-11-26T11:00:11.215Z,57536
2017-11-26T11:01:21.194Z,63936
2017-11-26T11:02:30.912Z,70464
2017-11-26T11:03:40.941Z,74208
2017-11-26T11:04:50.910Z,39808
2017-11-26T11:06:00.621Z,78688
2017-11-26T11:07:10.321Z,34112
2017-11-26T11:08:20.049Z,75744
2017-11-26T11:09:29.770Z,35648
2017-11-26T11:10:39.759Z,52608
2017-11-26T11:11:49.486Z,30112
2017-11-26T11:12:59.259Z,33088
2017-11-26T11:14:09.242Z,28320
2017-11-26T11:15:18.954Z,20000
2017-11-26T11:16:28.714Z,18624
2017-11-26T11:17:38.685Z,16120
2017-11-26T11:18:48.463Z,14968
2017-11-26T11:19:58.184Z,14328
2017-11-26T11:21:07.897Z,15672
2017-11-26T11:22:17.628Z,16820
2017-11-26T11:23:27.357Z,18816
2017-11-26T11:24:37.108Z,26272
2017-11-26T11:25:47.106Z,14756
2017-11-26T11:26:56.305Z,13984
2017-11-26T11:28:06.008Z,14076
2017-11-26T11:29:15.980Z,15128
2017-11-26T11:30:25.449Z,15732
2017-11-26T11:31:34.648Z,16020
2017-11-26T11:32:44.363Z,15316
2017-11-26T11:33:53.820Z,14460
2017-11-26T11:35:03.324Z,16352
2017-11-26T11:36:13.306Z,21024
2017-11-26T11:37:23.296Z,18208
2017-11-26T11:38:32.490Z,14780
2017-11-26T11:39:42.201Z,11360
2017-11-26T11:40:52.174Z,9228
2017-11-26T11:42:01.409Z,9324
2017-11-26T11:43:10.598Z,10068
2017-11-26T11:44:20.337Z,11480
2017-11-26T11:45:30.060Z,15452
2017-11-26T11:46:39.772Z,20704
2017-11-26T11:47:49.500Z,18112
2017-11-26T11:48:59.222Z,19360
2017-11-26T11:50:08.946Z,16576
2017-11-26T11:51:18.399Z,16736
2017-11-26T11:52:28.106Z,22272
2017-11-26T11:53:37.844Z,22976
2017-11-26T11:54:47.299Z,20896
2017-11-26T11:55:57.304Z,19616
2017-11-26T11:57:07.319Z,17344
2017-11-26T11:58:17.313Z,18624
2017-11-26T11:59:27.027Z,23840
2017-11-26T12:00:37.019Z,48288
2017-11-26T12:01:47.012Z,24512
2017-11-26T12:02:56.731Z,54560
2017-11-26T12:04:06.728Z,31808
2017-11-26T12:05:16.443Z,20064
2017-11-26T12:06:26.419Z,19136
2017-11-26T12:07:35.908Z,28608
2017-11-26T12:08:45.633Z,20416
2017-11-26T12:09:55.630Z,20832
2017-11-26T12:11:05.334Z,20128
2017-11-26T12:12:14.792Z,18560
2017-11-26T12:13:24.760Z,21536
2017-11-26T12:14:34.489Z,30048
2017-11-26T12:15:44.239Z,23776
2017-11-26T12:16:54.226Z,34528
2017-11-26T12:18:04.205Z,17536
2017-11-26T12:19:14.186Z,14120
2017-11-26T12:20:24.177Z,11976
2017-11-26T12:21:34.172Z,10228
2017-11-26T12:22:43.887Z,9396
2017-11-26T12:23:53.594Z,10484
2017-11-26T12:25:03.042Z,9972
2017-11-26T12:26:12.490Z,8500
2017-11-26T12:27:22.463Z,7232
2017-11-26T12:28:32.191Z,6624
2017-11-26T12:29:41.907Z,6696
2017-11-26T12:30:51.895Z,5916
2017-11-26T12:32:01.606Z,5400
2017-11-26T12:33:11.594Z,4932
2017-11-26T12:34:21.575Z,4676
2017-11-26T12:35:31.564Z,4952
2017-11-26T12:36:41.348Z,5244
2017-11-26T12:37:50.818Z,5740
2017-11-26T12:39:00.016Z,4784
2017-11-26T12:40:10.005Z,4724
2017-11-26T12:41:19.729Z,5608
2017-11-26T12:42:29.439Z,5940
2017-11-26T12:43:39.169Z,5412
2017-11-26T12:44:49.158Z,4732
2017-11-26T12:45:59.152Z,4100
2017-11-26T12:47:08.618Z,4292
2017-11-26T12:48:18.590Z,5484
2017-11-26T12:49:28.579Z,5792
2017-11-26T12:50:38.560Z,5216
2017-11-26T12:51:48.276Z,5016
2017-11-26T12:52:58.270Z,5356
2017-11-26T12:54:07.715Z,5376
2017-11-26T12:55:17.421Z,5216
2017-11-26T12:56:27.162Z,5176
2017-11-26T12:57:36.861Z,5212
2017-11-26T12:58:46.839Z,5160
2017-11-26T12:59:56.300Z,5044
2017-11-26T13:01:06.281Z,4872
2017-11-26T13:02:16.255Z,4568
2017-11-26T13:03:25.438Z,4388
2017-11-26T13:04:34.892Z,4100
2017-11-26T13:05:44.876Z,4116
2017-11-26T13:06:54.330Z,4156
2017-11-26T13:08:04.034Z,4464
2017-11-26T13:09:13.772Z,4440
2017-11-26T13:10:23.791Z,4456
2017-11-26T13:11:33.515Z,4032
2017-11-26T13:12:43.221Z,3216
2017-11-26T13:13:52.930Z,2968
2017-11-26T13:15:02.902Z,2912
2017-11-26T13:16:12.084Z,2728
2017-11-26T13:17:22.058Z,2144
2017-11-26T13:18:32.043Z,2076
2017-11-26T13:19:41.777Z,2316
2017-11-26T13:20:51.764Z,2720
2017-11-26T13:22:01.502Z,2764
2017-11-26T13:23:11.488Z,2800
2017-11-26T13:24:21.472Z,2908
2017-11-26T13:25:30.920Z,2772
2017-11-26T13:26:40.893Z,2820
2017-11-26T13:27:50.341Z,3032
2017-11-26T13:28:59.786Z,2916
2017-11-26T13:30:09.496Z,3072
2017-11-26T13:31:19.473Z,3444
2017-11-26T13:32:29.445Z,3880
2017-11-26T13:33:39.439Z,3972
2017-11-26T13:34:49.426Z,3380
2017-11-26T13:35:59.148Z,2612
2017-11-26T13:37:09.146Z,2064
2017-11-26T13:38:19.142Z,1968
2017-11-26T13:39:28.850Z,2024
2017-11-26T13:40:38.315Z,2548
2017-11-26T13:41:48.029Z,2740
2017-11-26T13:42:57.213Z,2640
2017-11-26T13:44:07.203Z,2376
2017-11-26T13:45:17.165Z,2040
2017-11-26T13:46:26.883Z,2440
2017-11-26T13:47:36.593Z,3256
2017-11-26T13:48:46.293Z,3148
2017-11-26T13:49:56.013Z,2372
2017-11-26T13:51:05.734Z,1844
2017-11-26T13:52:15.466Z,1832
2017-11-26T13:53:25.442Z,2428
2017-11-26T13:54:34.886Z,2636
2017-11-26T13:55:44.595Z,2812
2017-11-26T13:56:54.313Z,2700
2017-11-26T13:58:04.031Z,1904
2017-11-26T13:59:13.487Z,1448
2017-11-26T14:00:23.460Z,1792
2017-11-26T14:01:33.165Z,2504
2017-11-26T14:02:42.888Z,2748
2017-11-26T14:03:52.873Z,2140
2017-11-26T14:05:02.310Z,1484
2017-11-26T14:06:12.031Z,1048
2017-11-26T14:07:21.753Z,876
2017-11-26T14:08:31.726Z,984
2017-11-26T14:09:41.438Z,1188
2017-11-26T14:10:51.407Z,1524
2017-11-26T14:12:01.503Z,1600
2017-11-26T14:13:11.487Z,1920
2017-11-26T14:14:21.212Z,2300
2017-11-26T14:15:30.942Z,2624
2017-11-26T14:16:40.936Z,2568
2017-11-26T14:17:50.650Z,2344
2017-11-26T14:19:00.370Z,2084
2017-11-26T14:20:10.079Z,1824
2017-11-26T14:21:20.072Z,1692
2017-11-26T14:22:29.793Z,1720
2017-11-26T14:23:39.781Z,1816
2017-11-26T14:24:49.761Z,1744
2017-11-26T14:25:59.736Z,1524
2017-11-26T14:27:09.770Z,1368
2017-11-26T14:28:19.498Z,1316
2017-11-26T14:29:29.220Z,1248
2017-11-26T14:30:38.679Z,1040
2017-11-26T14:31:48.388Z,884
2017-11-26T14:32:58.124Z,784
2017-11-26T14:34:07.837Z,728
2017-11-26T14:35:17.546Z,776
2017-11-26T14:36:27.261Z,712
2017-11-26T14:37:36.720Z,656
2017-11-26T14:38:46.439Z,636
2017-11-26T14:39:56.165Z,588
2017-11-26T14:41:05.641Z,572
2017-11-26T14:42:15.379Z,564
2017-11-26T14:43:25.389Z,524
2017-11-26T14:44:35.364Z,476
2017-11-26T14:45:44.826Z,428
2017-11-26T14:46:54.787Z,376
2017-11-26T14:48:04.808Z,352
2017-11-26T14:49:13.983Z,368
2017-11-26T14:50:23.694Z,380
2017-11-26T14:51:33.421Z,356
2017-11-26T14:52:42.875Z,316
2017-11-26T14:53:52.864Z,260
2017-11-26T14:55:03.084Z,188
2017-11-26T14:56:12.277Z,168
2017-11-26T14:57:22.255Z,224
2017-11-26T14:58:31.965Z,212
2017-11-26T14:59:41.971Z,204
2017-11-26T15:00:51.953Z,220
2017-11-26T15:02:01.687Z,212
2017-11-26T15:03:11.659Z,188
2017-11-26T15:04:21.383Z,156
2017-11-26T15:05:31.365Z,132
2017-11-26T15:06:41.087Z,112
2017-11-26T15:07:50.807Z,80
2017-11-26T15:09:00.772Z,68
2017-11-26T15:10:10.480Z,60
2017-11-26T15:11:20.500Z,44
2017-11-26T15:12:29.986Z,32
2017-11-26T15:13:39.964Z,28
2017-11-26T15:14:49.946Z,20
2017-11-26T15:15:59.924Z,24
2017-11-26T15:17:09.643Z,20
2017-11-26T15:18:19.089Z,20
2017-11-26T15:19:29.069Z,16
2017-11-26T15:20:39.039Z,16
2017-11-26T15:21:48.495Z,16
2017-11-26T15:22:58.191Z,12
2017-11-26T15:24:07.926Z,8
2017-11-26T15:25:17.375Z,12
2017-11-26T15:26:27.341Z,8
2017-11-26T15:27:36.802Z,8
2017-11-26T15:28:46.781Z,4
2017-11-26T15:29:56.503Z,4
2017-11-26T15:31:05.946Z,4
2017-11-26T15:32:15.924Z,0
2017-11-26T15:33:25.890Z,4
2017-11-26T15:34:35.626Z,4
2017-11-26T15:35:45.082Z,0
2017-11-26T15:36:54.795Z,0
2017-11-26T15:38:04.783Z,0
2017-11-26T15:39:14.764Z,0
2017-11-26T15:40:24.748Z,0
2017-11-26T15:41:34.479Z,0
2017-11-26T15:42:44.205Z,0
2017-11-26T15:43:53.929Z,0
2017-11-26T15:45:03.656Z,0
2017-11-26T15:46:13.370Z,0
2017-11-26T15:47:23.081Z,0
2017-11-26T15:48:32.811Z,0
2017-11-26T15:49:42.269Z,0
2017-11-26T15:50:51.729Z,0
2017-11-26T15:52:01.205Z,0
2017-11-26T15:53:11.171Z,0
2017-11-26T15:54:20.900Z,0
2017-11-26T15:55:30.370Z,0
2017-11-26T15:56:40.103Z,0
2017-11-26T15:57:49.541Z,0
2017-11-26T15:58:59.516Z,0
2017-11-26T16:00:09.244Z,0
2017-11-26T16:01:19.232Z,0
2017-11-26T16:02:29.208Z,0
2017-11-26T16:03:38.921Z,0
2017-11-26T16:04:48.367Z,0
2017-11-26T16:05:57.810Z,0
2017-11-26T16:07:07.526Z,0
2017-11-26T16:08:17.262Z,0
2017-11-26T16:09:26.734Z,0